createdAt,value
2018-12-07T00:00:11.070Z,8.34
2018-12-07T00:01:10.797Z,8.4
2018-12-07T00:02:11.041Z,8.34
2018-12-07T00:03:11.020Z,8.39
2018-12-07T00:04:11.015Z,8.42
2018-12-07T00:05:10.992Z,8.35
2018-12-07T00:06:10.989Z,8.29
2018-12-07T00:07:10.971Z,8.39
2018-12-07T00:08:10.966Z,8.39
2018-12-07T00:09:10.948Z,8.32
2018-12-07T00:10:10.933Z,8.31
2018-12-07T00:11:10.920Z,8.29
2018-12-07T00:12:10.914Z,8.44
2018-12-07T00:13:10.899Z,8.34
2018-12-07T00:14:10.888Z,8.4
2018-12-07T00:15:10.869Z,8.42
2018-12-07T00:16:10.858Z,8.44
2018-12-07T00:17:10.852Z,8.36
2018-12-07T00:18:10.838Z,8.42
2018-12-07T00:19:10.837Z,8.42
2018-12-07T00:20:10.564Z,8.42
2018-12-07T00:21:10.794Z,8.43
2018-12-07T00:22:10.781Z,8.4
2018-12-07T00:23:10.771Z,8.4
2018-12-07T00:24:10.756Z,8.49
2018-12-07T00:25:10.741Z,8.49
2018-12-07T00:26:10.729Z,8.49
2018-12-07T00:27:10.471Z,8.46
2018-12-07T00:28:10.462Z,8.49
2018-12-07T00:29:10.695Z,8.53
2018-12-07T00:30:10.698Z,8.6
2018-12-07T00:31:10.420Z,8.53
2018-12-07T00:32:10.665Z,8.58
2018-12-07T00:33:10.650Z,8.47
2018-12-07T00:34:10.632Z,8.58
2018-12-07T00:35:10.616Z,8.61
2018-12-07T00:36:10.615Z,8.58
2018-12-07T00:37:10.100Z,8.6
2018-12-07T00:38:10.588Z,8.57
2018-12-07T00:39:10.668Z,8.6
2018-12-07T00:40:10.562Z,8.61
2018-12-07T00:41:10.540Z,8.62
2018-12-07T00:42:10.533Z,8.6
2018-12-07T00:43:10.528Z,8.62
2018-12-07T00:44:10.511Z,8.57
2018-12-07T00:45:10.246Z,8.68
2018-12-07T00:46:10.486Z,8.65
2018-12-07T00:47:10.470Z,8.64
2018-12-07T00:48:10.462Z,8.65
2018-12-07T00:49:10.448Z,8.68
2018-12-07T00:50:10.431Z,8.69
2018-12-07T00:51:10.421Z,8.68
2018-12-07T00:52:10.412Z,8.76
2018-12-07T00:53:10.395Z,8.72
2018-12-07T00:54:10.383Z,8.74
2018-12-07T00:55:10.379Z,8.74
2018-12-07T00:56:10.361Z,8.71
2018-12-07T00:57:10.100Z,8.74
2018-12-07T00:58:10.341Z,8.74
2018-12-07T00:59:10.324Z,8.69
2018-12-07T01:00:10.311Z,8.79
2018-12-07T01:01:10.297Z,8.74
2018-12-07T01:02:10.304Z,8.68
2018-12-07T01:03:10.276Z,8.72
2018-12-07T01:04:10.286Z,8.74
2018-12-07T01:05:10.251Z,8.74
2018-12-07T01:06:10.239Z,8.76
2018-12-07T01:07:09.981Z,8.72
2018-12-07T01:08:10.216Z,8.72
2018-12-07T01:09:10.209Z,8.8
2018-12-07T01:10:10.188Z,8.8
2018-12-07T01:11:10.177Z,8.74
2018-12-07T01:12:10.167Z,8.76
2018-12-07T01:13:10.150Z,8.83
2018-12-07T01:14:10.218Z,8.89
2018-12-07T01:15:10.130Z,8.83
2018-12-07T01:16:10.119Z,8.9
2018-12-07T01:17:10.106Z,8.82
2018-12-07T01:18:10.087Z,8.85
2018-12-07T01:19:09.828Z,8.87
2018-12-07T01:20:10.061Z,8.89
2018-12-07T01:21:10.052Z,8.85
2018-12-07T01:22:09.823Z,8.86
2018-12-07T01:23:10.035Z,8.83
2018-12-07T01:24:09.768Z,8.86
2018-12-07T01:25:09.998Z,8.95
2018-12-07T01:26:09.994Z,8.95
2018-12-07T01:27:09.753Z,8.9
2018-12-07T01:28:09.970Z,8.9
2018-12-07T01:29:09.722Z,8.85
2018-12-07T01:30:09.943Z,8.95
2018-12-07T01:31:09.932Z,8.83
2018-12-07T01:32:09.936Z,8.92
2018-12-07T01:33:09.914Z,8.94
2018-12-07T01:34:09.897Z,8.94
2018-12-07T01:35:09.886Z,8.92
2018-12-07T01:36:09.624Z,8.95
2018-12-07T01:37:09.867Z,9
2018-12-07T01:38:09.847Z,8.95
2018-12-07T01:39:09.913Z,8.9
2018-12-07T01:40:09.819Z,8.86
2018-12-07T01:41:09.565Z,8.95
2018-12-07T01:42:09.800Z,9
2018-12-07T01:43:09.785Z,8.95
2018-12-07T01:44:09.781Z,8.92
2018-12-07T01:45:09.760Z,9
2018-12-07T01:46:09.755Z,8.94
2018-12-07T01:47:09.742Z,8.89
2018-12-07T01:48:09.730Z,8.94
2018-12-07T01:49:09.709Z,8.9
2018-12-07T01:50:09.705Z,8.92
2018-12-07T01:51:09.693Z,8.94
2018-12-07T01:52:09.679Z,8.98
2018-12-07T01:53:09.668Z,8.87
2018-12-07T01:54:09.654Z,8.94
2018-12-07T01:55:09.394Z,8.9
2018-12-07T01:56:09.634Z,9.04
2018-12-07T01:57:09.367Z,9.01
2018-12-07T01:58:09.607Z,8.97
2018-12-07T01:59:09.600Z,9
2018-12-07T02:00:09.585Z,9.01
2018-12-07T02:01:09.570Z,8.89
2018-12-07T02:02:09.562Z,9.01
2018-12-07T02:03:09.547Z,8.9
2018-12-07T02:04:09.286Z,8.95
2018-12-07T02:05:09.521Z,8.97
2018-12-07T02:06:09.510Z,9.03
2018-12-07T02:07:09.500Z,8.9
2018-12-07T02:08:09.487Z,9.01
2018-12-07T02:09:09.473Z,8.9
2018-12-07T02:10:09.465Z,9.03
2018-12-07T02:11:09.460Z,8.9
2018-12-07T02:12:09.451Z,9.01
2018-12-07T02:13:09.428Z,9.03
2018-12-07T02:14:09.163Z,9.04
2018-12-07T02:15:09.400Z,9
2018-12-07T02:16:09.143Z,9
2018-12-07T02:17:09.378Z,9.03
2018-12-07T02:18:09.368Z,8.97
2018-12-07T02:19:09.352Z,9.01
2018-12-07T02:20:09.340Z,9.03
2018-12-07T02:21:09.325Z,9.08
2018-12-07T02:22:09.319Z,8.95
2018-12-07T02:23:09.306Z,9.01
2018-12-07T02:24:09.292Z,9.04
2018-12-07T02:25:09.033Z,9.01
2018-12-07T02:26:09.271Z,9.01
2018-12-07T02:27:09.013Z,8.98
2018-12-07T02:28:09.247Z,9.05
2018-12-07T02:29:09.236Z,9.03
2018-12-07T02:30:09.231Z,9.03
2018-12-07T02:31:09.217Z,9.05
2018-12-07T02:32:08.950Z,9.04
2018-12-07T02:33:09.192Z,9.03
2018-12-07T02:34:09.179Z,9.08
2018-12-07T02:35:09.162Z,9.01
2018-12-07T02:36:09.154Z,8.97
2018-12-07T02:37:09.140Z,9.03
2018-12-07T02:38:09.135Z,9.09
2018-12-07T02:39:09.126Z,9.09
2018-12-07T02:40:09.103Z,8.97
2018-12-07T02:41:09.117Z,9.12
2018-12-07T02:42:09.081Z,9.14
2018-12-07T02:43:09.069Z,9.09
2018-12-07T02:44:09.059Z,9.11
2018-12-07T02:45:09.050Z,9.09
2018-12-07T02:46:09.029Z,9.08
2018-12-07T02:47:09.019Z,9.09
2018-12-07T02:48:08.765Z,9.11
2018-12-07T02:49:08.992Z,9.11
2018-12-07T02:50:08.742Z,9.16
2018-12-07T02:51:08.973Z,9
2018-12-07T02:52:08.976Z,9.11
2018-12-07T02:53:08.710Z,9.16
2018-12-07T02:54:08.947Z,9.17
2018-12-07T02:55:08.675Z,9.19
2018-12-07T02:56:08.919Z,9.16
2018-12-07T02:57:08.964Z,9.19
2018-12-07T02:58:08.897Z,9.23
2018-12-07T02:59:08.875Z,9.24
2018-12-07T03:00:08.865Z,9.21
2018-12-07T03:01:08.861Z,9.21
2018-12-07T03:02:08.869Z,9.26
2018-12-07T03:03:08.830Z,9.19
2018-12-07T03:04:08.568Z,9.16
2018-12-07T03:05:08.806Z,9.21
2018-12-07T03:06:08.545Z,9.16
2018-12-07T03:07:08.789Z,9.17
2018-12-07T03:08:08.273Z,9.2
2018-12-07T03:09:08.759Z,9.16
2018-12-07T03:10:08.752Z,9.16
2018-12-07T03:11:08.763Z,9.21
2018-12-07T03:12:08.725Z,9.21
2018-12-07T03:13:08.711Z,9.26
2018-12-07T03:14:08.776Z,9.21
2018-12-07T03:15:08.684Z,9.26
2018-12-07T03:16:08.674Z,9.2
2018-12-07T03:17:08.675Z,9.2
2018-12-07T03:18:08.653Z,9.3
2018-12-07T03:19:08.644Z,9.29
2018-12-07T03:20:08.632Z,9.34
2018-12-07T03:21:08.621Z,9.3
2018-12-07T03:22:08.610Z,9.29
2018-12-07T03:23:08.598Z,9.27
2018-12-07T03:24:08.579Z,9.29
2018-12-07T03:25:08.571Z,9.26
2018-12-07T03:26:08.316Z,9.32
2018-12-07T03:27:08.547Z,9.17
2018-12-07T03:28:08.537Z,9.26
2018-12-07T03:29:08.282Z,9.2
2018-12-07T03:30:08.521Z,9.21
2018-12-07T03:31:08.523Z,9.29
2018-12-07T03:32:08.500Z,9.21
2018-12-07T03:33:08.239Z,9.2
2018-12-07T03:34:08.467Z,9.2
2018-12-07T03:35:08.460Z,9.17
2018-12-07T03:36:08.437Z,9.2
2018-12-07T03:37:08.441Z,9.2
2018-12-07T03:38:08.423Z,9.23
2018-12-07T03:39:07.918Z,9.21
2018-12-07T03:40:08.398Z,9.19
2018-12-07T03:41:08.382Z,9.26
2018-12-07T03:42:08.374Z,9.26
2018-12-07T03:43:08.359Z,9.27
2018-12-07T03:44:08.363Z,9.17
2018-12-07T03:45:08.336Z,9.17
2018-12-07T03:46:08.080Z,9.19
2018-12-07T03:47:08.315Z,9.17
2018-12-07T03:48:08.313Z,9.2
2018-12-07T03:49:08.040Z,9.2
2018-12-07T03:50:08.279Z,9.19
2018-12-07T03:51:08.270Z,9.2
2018-12-07T03:52:08.263Z,9.23
2018-12-07T03:53:08.250Z,9.23
2018-12-07T03:54:08.240Z,9.24
2018-12-07T03:55:07.983Z,9.19
2018-12-07T03:56:08.252Z,9.21
2018-12-07T03:57:08.200Z,9.16
2018-12-07T03:58:07.932Z,9.12
2018-12-07T03:59:08.172Z,9.21
2018-12-07T04:00:08.174Z,9.19
2018-12-07T04:01:08.151Z,9.2
2018-12-07T04:02:08.143Z,9.16
2018-12-07T04:03:07.883Z,9.23
2018-12-07T04:04:08.116Z,9.24
2018-12-07T04:05:08.102Z,9.21
2018-12-07T04:06:08.167Z,9.2
2018-12-07T04:07:08.080Z,9.2
2018-12-07T04:08:08.077Z,9.17
2018-12-07T04:09:07.807Z,9.2
2018-12-07T04:10:08.045Z,9.16
2018-12-07T04:11:08.032Z,9.17
2018-12-07T04:12:08.024Z,9.19
2018-12-07T04:13:08.043Z,9.2
2018-12-07T04:14:08.037Z,9.12
2018-12-07T04:15:07.756Z,9.16
2018-12-07T04:16:07.972Z,9.19
2018-12-07T04:17:07.968Z,9.16
2018-12-07T04:18:07.701Z,9.16
2018-12-07T04:19:07.938Z,9.17
2018-12-07T04:20:07.926Z,9.16
2018-12-07T04:21:07.935Z,9.11
2018-12-07T04:22:07.912Z,9.16
2018-12-07T04:23:07.890Z,9.12
2018-12-07T04:24:07.888Z,9.16
2018-12-07T04:25:07.879Z,9.08
2018-12-07T04:26:07.864Z,9.09
2018-12-07T04:27:07.843Z,9.11
2018-12-07T04:28:07.839Z,9.09
2018-12-07T04:29:07.824Z,9.17
2018-12-07T04:30:07.810Z,9.2
2018-12-07T04:31:07.800Z,9.16
2018-12-07T04:32:07.540Z,9.21
2018-12-07T04:33:07.773Z,9.2
2018-12-07T04:34:07.760Z,9.14
2018-12-07T04:35:07.756Z,9.23
2018-12-07T04:36:12.338Z,9.17
2018-12-07T04:37:07.732Z,9.24
2018-12-07T04:38:07.219Z,9.17
2018-12-07T04:39:07.704Z,9.2
2018-12-07T04:40:07.694Z,9.21
2018-12-07T04:41:07.430Z,9.2
2018-12-07T04:42:07.697Z,9.23
2018-12-07T04:43:07.658Z,9.17
2018-12-07T04:44:07.650Z,9.2
2018-12-07T04:45:07.633Z,9.21
2018-12-07T04:46:07.665Z,9.23
2018-12-07T04:47:07.361Z,9.21
2018-12-07T04:48:07.354Z,9.19
2018-12-07T04:49:07.699Z,9.2
2018-12-07T04:50:07.577Z,9.26
2018-12-07T04:51:07.602Z,9.29
2018-12-07T04:52:07.322Z,9.24
2018-12-07T04:53:07.564Z,9.26
2018-12-07T04:54:07.542Z,9.19
2018-12-07T04:55:07.517Z,9.2
2018-12-07T04:56:07.514Z,9.29
2018-12-07T04:57:07.491Z,9.34
2018-12-07T04:58:07.483Z,9.2
2018-12-07T04:59:07.485Z,9.27
2018-12-07T05:00:07.214Z,9.29
2018-12-07T05:01:07.462Z,9.35
2018-12-07T05:02:07.493Z,9.32
2018-12-07T05:03:07.429Z,9.29
2018-12-07T05:04:07.411Z,9.3
2018-12-07T05:05:07.431Z,9.24
2018-12-07T05:06:07.405Z,9.17
2018-12-07T05:07:07.128Z,9.32
2018-12-07T05:08:07.381Z,9.34
2018-12-07T05:09:07.357Z,9.3
2018-12-07T05:10:07.348Z,9.34
2018-12-07T05:11:07.356Z,9.34
2018-12-07T05:12:07.322Z,9.3
2018-12-07T05:13:07.071Z,9.26
2018-12-07T05:14:07.303Z,9.27
2018-12-07T05:15:07.299Z,9.21
2018-12-07T05:16:07.282Z,9.32
2018-12-07T05:17:07.275Z,9.3
2018-12-07T05:18:07.249Z,9.23
2018-12-07T05:19:06.993Z,9.23
2018-12-07T05:20:06.978Z,9.23
2018-12-07T05:21:07.213Z,9.19
2018-12-07T05:22:07.210Z,9.3
2018-12-07T05:23:07.195Z,9.19
2018-12-07T05:24:07.239Z,9.19
2018-12-07T05:25:07.182Z,9.29
2018-12-07T05:26:07.163Z,9.29
2018-12-07T05:27:06.899Z,9.24
2018-12-07T05:28:07.134Z,9.29
2018-12-07T05:29:07.121Z,9.29
2018-12-07T05:30:07.108Z,9.3
2018-12-07T05:31:06.869Z,9.3
2018-12-07T05:32:07.085Z,9.27
2018-12-07T05:33:07.072Z,9.17
2018-12-07T05:34:07.074Z,9.21
2018-12-07T05:35:07.048Z,9.19
2018-12-07T05:36:07.038Z,9.3
2018-12-07T05:37:06.786Z,9.26
2018-12-07T05:38:07.025Z,9.3
2018-12-07T05:39:07.003Z,9.29
2018-12-07T05:40:07.092Z,9.34
2018-12-07T05:41:06.975Z,9.27
2018-12-07T05:42:06.967Z,9.17
2018-12-07T05:43:06.972Z,9.29
2018-12-07T05:44:06.971Z,9.21
2018-12-07T05:45:06.776Z,9.27
2018-12-07T05:46:07.022Z,9.2
2018-12-07T05:47:06.911Z,9.16
2018-12-07T05:48:06.969Z,9.34
2018-12-07T05:49:06.906Z,9.19
2018-12-07T05:50:06.877Z,9.23
2018-12-07T05:51:06.865Z,9.29
2018-12-07T05:52:06.598Z,9.24
2018-12-07T05:53:06.588Z,9.3
2018-12-07T05:54:06.829Z,9.29
2018-12-07T05:55:06.825Z,9.29
2018-12-07T05:56:06.558Z,9.3
2018-12-07T05:57:06.539Z,9.34
2018-12-07T05:58:06.779Z,9.34
2018-12-07T05:59:06.769Z,9.35
2018-12-07T06:00:06.763Z,9.35
2018-12-07T06:01:06.744Z,9.35
2018-12-07T06:02:06.730Z,9.35
2018-12-07T06:03:06.746Z,9.32
2018-12-07T06:04:06.721Z,9.32
2018-12-07T06:05:06.699Z,9.38
2018-12-07T06:06:06.689Z,9.37
2018-12-07T06:07:06.676Z,9.34
2018-12-07T06:08:06.659Z,9.34
2018-12-07T06:09:06.654Z,9.29
2018-12-07T06:10:06.637Z,9.29
2018-12-07T06:11:06.634Z,9.3
2018-12-07T06:12:06.614Z,9.37
2018-12-07T06:13:06.613Z,9.3
2018-12-07T06:14:06.588Z,9.35
2018-12-07T06:15:06.580Z,9.32
2018-12-07T06:16:06.574Z,9.34
2018-12-07T06:17:06.565Z,9.37
2018-12-07T06:18:06.321Z,9.35
2018-12-07T06:19:06.535Z,9.45
2018-12-07T06:20:06.526Z,9.3
2018-12-07T06:21:06.511Z,9.37
2018-12-07T06:22:06.499Z,9.47
2018-12-07T06:23:06.486Z,9.3
2018-12-07T06:24:06.479Z,9.3
2018-12-07T06:25:06.484Z,9.38
2018-12-07T06:26:06.453Z,9.37
2018-12-07T06:27:06.196Z,9.37
2018-12-07T06:28:06.182Z,9.35
2018-12-07T06:29:06.421Z,9.3
2018-12-07T06:30:06.411Z,9.3
2018-12-07T06:31:06.397Z,9.3
2018-12-07T06:32:06.382Z,9.37
2018-12-07T06:33:06.375Z,9.38
2018-12-07T06:34:06.357Z,9.35
2018-12-07T06:35:06.103Z,9.34
2018-12-07T06:36:06.344Z,9.37
2018-12-07T06:37:06.322Z,9.35
2018-12-07T06:38:06.310Z,9.34
2018-12-07T06:39:06.299Z,9.34
2018-12-07T06:40:06.295Z,9.35
2018-12-07T06:41:06.278Z,9.38
2018-12-07T06:42:06.265Z,9.32
2018-12-07T06:43:06.004Z,9.34
2018-12-07T06:44:06.253Z,9.3
2018-12-07T06:45:06.229Z,9.27
2018-12-07T06:46:06.220Z,9.17
2018-12-07T06:47:06.281Z,9.24
2018-12-07T06:48:06.191Z,9.32
2018-12-07T06:49:06.180Z,9.3
2018-12-07T06:50:06.169Z,9.26
2018-12-07T06:51:05.913Z,9.21
2018-12-07T06:52:06.152Z,9.27
2018-12-07T06:53:06.139Z,9.3
2018-12-07T06:54:06.124Z,9.34
2018-12-07T06:55:06.117Z,9.3
2018-12-07T06:56:06.134Z,9.29
2018-12-07T06:57:06.087Z,9.19
2018-12-07T06:58:06.086Z,9.29
2018-12-07T06:59:05.823Z,9.17
2018-12-07T07:00:06.059Z,9.27
2018-12-07T07:01:06.045Z,9.3
2018-12-07T07:02:06.031Z,9.29
2018-12-07T07:03:06.021Z,9.21
2018-12-07T07:04:06.010Z,9.23
2018-12-07T07:05:05.779Z,9.34
2018-12-07T07:06:05.987Z,9.29
2018-12-07T07:07:07.712Z,9.32
2018-12-07T07:08:05.960Z,9.37
2018-12-07T07:09:05.951Z,9.27
2018-12-07T07:10:05.941Z,9.38
2018-12-07T07:11:05.925Z,9.3
2018-12-07T07:12:05.914Z,9.39
2018-12-07T07:13:05.904Z,9.37
2018-12-07T07:14:05.899Z,9.34
2018-12-07T07:15:05.880Z,9.42
2018-12-07T07:16:05.866Z,9.37
2018-12-07T07:17:05.852Z,9.29
2018-12-07T07:18:05.851Z,9.38
2018-12-07T07:19:05.833Z,9.44
2018-12-07T07:20:05.826Z,9.35
2018-12-07T07:21:05.561Z,9.39
2018-12-07T07:22:05.797Z,9.39
2018-12-07T07:23:05.797Z,9.47
2018-12-07T07:24:05.774Z,9.45
2018-12-07T07:25:05.759Z,9.42
2018-12-07T07:26:05.746Z,9.45
2018-12-07T07:27:05.739Z,9.45
2018-12-07T07:28:05.780Z,9.48
2018-12-07T07:29:05.714Z,9.47
2018-12-07T07:30:05.704Z,9.48
2018-12-07T07:31:05.721Z,9.5
2018-12-07T07:32:05.684Z,9.47
2018-12-07T07:33:05.672Z,9.52
2018-12-07T07:34:05.659Z,9.55
2018-12-07T07:35:05.654Z,9.5
2018-12-07T07:36:05.638Z,9.56
2018-12-07T07:37:05.372Z,9.52
2018-12-07T07:38:05.612Z,9.55
2018-12-07T07:39:05.609Z,9.48
2018-12-07T07:40:05.588Z,9.52
2018-12-07T07:41:05.586Z,9.53
2018-12-07T07:42:05.569Z,9.57
2018-12-07T07:43:05.556Z,9.52
2018-12-07T07:44:05.297Z,9.56
2018-12-07T07:45:05.569Z,9.57
2018-12-07T07:46:05.522Z,9.63
2018-12-07T07:47:05.571Z,9.57
2018-12-07T07:48:05.503Z,9.56
2018-12-07T07:49:05.544Z,9.57
2018-12-07T07:50:05.476Z,9.62
2018-12-07T07:51:05.458Z,9.62
2018-12-07T07:52:05.446Z,9.66
2018-12-07T07:53:05.188Z,9.66
2018-12-07T07:54:05.429Z,9.64
2018-12-07T07:55:05.422Z,9.6
2018-12-07T07:56:05.402Z,9.64
2018-12-07T07:57:05.426Z,9.7
2018-12-07T07:58:05.139Z,9.63
2018-12-07T07:59:05.366Z,9.67
2018-12-07T08:00:05.114Z,9.66
2018-12-07T08:01:05.347Z,9.62
2018-12-07T08:02:05.339Z,9.74
2018-12-07T08:03:05.329Z,9.67
2018-12-07T08:04:05.069Z,9.7
2018-12-07T08:05:05.311Z,9.71
2018-12-07T08:06:05.289Z,9.64
2018-12-07T08:07:05.283Z,9.7
2018-12-07T08:08:05.269Z,9.63
2018-12-07T08:09:05.256Z,9.72
2018-12-07T08:10:05.250Z,9.7
2018-12-07T08:11:05.232Z,9.67
2018-12-07T08:12:04.972Z,9.77
2018-12-07T08:13:05.216Z,9.75
2018-12-07T08:14:04.957Z,9.75
2018-12-07T08:15:05.198Z,9.74
2018-12-07T08:16:05.183Z,9.78
2018-12-07T08:17:05.170Z,9.75
2018-12-07T08:18:05.158Z,9.8
2018-12-07T08:19:05.153Z,9.75
2018-12-07T08:20:04.899Z,9.84
2018-12-07T08:21:05.125Z,9.8
2018-12-07T08:22:05.390Z,9.82
2018-12-07T08:23:04.603Z,9.81
2018-12-07T08:24:05.088Z,9.81
2018-12-07T08:25:05.079Z,9.9
2018-12-07T08:26:04.820Z,9.9
2018-12-07T08:27:05.053Z,9.82
2018-12-07T08:28:05.044Z,9.92
2018-12-07T08:29:05.029Z,9.9
2018-12-07T08:30:05.022Z,9.93
2018-12-07T08:31:05.011Z,9.93
2018-12-07T08:32:05.004Z,9.96
2018-12-07T08:33:04.988Z,9.92
2018-12-07T08:34:04.919Z,9.92
2018-12-07T08:35:04.962Z,9.92
2018-12-07T08:36:04.947Z,9.89
2018-12-07T08:37:04.940Z,9.89
2018-12-07T08:38:04.933Z,9.85
2018-12-07T08:39:04.918Z,9.84
2018-12-07T08:40:04.916Z,9.85
2018-12-07T08:41:04.903Z,9.89
2018-12-07T08:42:11.403Z,9.89
2018-12-07T08:43:04.880Z,9.89
2018-12-07T08:44:04.863Z,9.82
2018-12-07T08:45:04.353Z,9.84
2018-12-07T08:46:04.615Z,9.78
2018-12-07T08:47:04.827Z,9.78
2018-12-07T08:48:04.827Z,9.84
2018-12-07T08:49:04.807Z,9.72
2018-12-07T08:50:04.804Z,9.82
2018-12-07T08:51:04.786Z,9.82
2018-12-07T08:52:04.779Z,9.78
2018-12-07T08:53:04.767Z,9.84
2018-12-07T08:54:04.757Z,9.78
2018-12-07T08:55:04.751Z,9.78
2018-12-07T08:56:04.762Z,9.74
2018-12-07T08:57:04.465Z,9.74
2018-12-07T08:58:04.711Z,9.78
2018-12-07T08:59:04.694Z,9.78
2018-12-07T09:00:04.680Z,9.77
2018-12-07T09:01:04.670Z,9.78
2018-12-07T09:02:04.659Z,9.82
2018-12-07T09:03:04.661Z,9.78
2018-12-07T09:04:04.635Z,9.81
2018-12-07T09:05:04.635Z,9.81
2018-12-07T09:06:04.616Z,9.78
2018-12-07T09:07:04.605Z,9.82
2018-12-07T09:08:04.594Z,9.84
2018-12-07T09:09:04.595Z,9.85
2018-12-07T09:10:04.579Z,9.85
2018-12-07T09:11:04.567Z,9.93
2018-12-07T09:12:04.553Z,9.81
2018-12-07T09:13:04.289Z,9.93
2018-12-07T09:14:04.534Z,9.9
2018-12-07T09:15:04.618Z,9.93
2018-12-07T09:16:04.505Z,9.89
2018-12-07T09:17:04.498Z,9.93
2018-12-07T09:18:04.487Z,9.9
2018-12-07T09:19:04.221Z,9.9
2018-12-07T09:20:04.463Z,9.92
2018-12-07T09:21:04.447Z,9.85
2018-12-07T09:22:04.434Z,9.9
2018-12-07T09:23:04.177Z,9.85
2018-12-07T09:24:04.168Z,9.8
2018-12-07T09:25:04.419Z,9.82
2018-12-07T09:26:04.399Z,9.8
2018-12-07T09:27:04.381Z,9.8
2018-12-07T09:28:04.125Z,9.88
2018-12-07T09:29:04.362Z,9.9
2018-12-07T09:30:04.349Z,9.92
2018-12-07T09:31:04.339Z,9.95
2018-12-07T09:32:04.328Z,9.92
2018-12-07T09:33:04.319Z,9.92
2018-12-07T09:34:04.059Z,9.95
2018-12-07T09:35:04.297Z,9.92
2018-12-07T09:36:04.285Z,9.88
2018-12-07T09:37:04.270Z,9.93
2018-12-07T09:38:04.261Z,9.95
2018-12-07T09:39:04.258Z,9.93
2018-12-07T09:40:04.244Z,9.95
2018-12-07T09:41:04.232Z,9.96
2018-12-07T09:42:04.216Z,9.95
2018-12-07T09:43:03.953Z,9.92
2018-12-07T09:44:03.944Z,9.96
2018-12-07T09:45:04.049Z,9.89
2018-12-07T09:46:04.176Z,9.89
2018-12-07T09:47:04.168Z,9.99
2018-12-07T09:48:04.154Z,9.95
2018-12-07T09:49:03.888Z,9.93
2018-12-07T09:50:04.136Z,9.9
2018-12-07T09:51:04.114Z,9.96
2018-12-07T09:52:04.105Z,9.95
2018-12-07T09:53:04.103Z,10
2018-12-07T09:54:03.840Z,9.95
2018-12-07T09:55:03.580Z,9.96
2018-12-07T09:56:03.813Z,9.96
2018-12-07T09:57:04.058Z,9.96
2018-12-07T09:58:04.047Z,9.95
2018-12-07T09:59:03.855Z,9.88
2018-12-07T10:00:03.770Z,9.95
2018-12-07T10:01:04.005Z,9.9
2018-12-07T10:02:04.000Z,9.92
2018-12-07T10:03:03.987Z,9.93
2018-12-07T10:04:03.973Z,10.02
2018-12-07T10:05:03.967Z,9.99
2018-12-07T10:06:03.960Z,10.1
2018-12-07T10:07:03.941Z,10
2018-12-07T10:08:03.933Z,9.92
2018-12-07T10:09:03.925Z,9.9
2018-12-07T10:10:03.915Z,9.92
2018-12-07T10:11:03.900Z,9.95
2018-12-07T10:12:03.891Z,9.9
2018-12-07T10:13:10.261Z,9.96
2018-12-07T10:14:03.615Z,9.95
2018-12-07T10:15:03.944Z,9.89
2018-12-07T10:16:03.841Z,9.92
2018-12-07T10:17:03.839Z,9.99
2018-12-07T10:18:03.822Z,9.89
2018-12-07T10:19:03.813Z,10
2018-12-07T10:20:03.801Z,10.05
2018-12-07T10:21:03.870Z,9.95
2018-12-07T10:22:03.784Z,9.96
2018-12-07T10:23:03.770Z,10
2018-12-07T10:24:03.510Z,9.98
2018-12-07T10:25:03.745Z,10.05
2018-12-07T10:26:03.732Z,10
2018-12-07T10:27:03.726Z,9.93
2018-12-07T10:28:03.710Z,9.92
2018-12-07T10:29:03.714Z,9.95
2018-12-07T10:30:03.692Z,9.95
2018-12-07T10:31:03.739Z,9.95
2018-12-07T10:32:03.667Z,9.89
2018-12-07T10:33:03.689Z,9.92
2018-12-07T10:34:03.650Z,9.8
2018-12-07T10:35:03.642Z,9.81
2018-12-07T10:36:03.373Z,9.8
2018-12-07T10:37:03.621Z,9.77
2018-12-07T10:38:03.602Z,9.71
2018-12-07T10:39:03.596Z,9.72
2018-12-07T10:40:03.577Z,9.72
2018-12-07T10:41:03.331Z,9.72
2018-12-07T10:42:04.790Z,9.71
2018-12-07T10:43:03.548Z,9.74
2018-12-07T10:44:03.541Z,9.67
2018-12-07T10:45:03.536Z,9.77
2018-12-07T10:46:03.270Z,9.74
2018-12-07T10:47:03.502Z,9.78
2018-12-07T10:48:03.491Z,9.81
2018-12-07T10:49:03.483Z,9.84
2018-12-07T10:50:03.483Z,9.82
2018-12-07T10:51:10.310Z,9.75
2018-12-07T10:52:03.450Z,9.81
2018-12-07T10:53:03.436Z,9.75
2018-12-07T10:54:03.425Z,9.75
2018-12-07T10:55:03.165Z,9.77
2018-12-07T10:56:03.405Z,9.82
2018-12-07T10:57:03.141Z,9.72
2018-12-07T10:58:03.390Z,9.74
2018-12-07T10:59:03.122Z,9.7
2018-12-07T11:00:03.362Z,9.7
2018-12-07T11:01:03.104Z,9.7
2018-12-07T11:02:03.095Z,9.7
2018-12-07T11:03:03.322Z,9.7
2018-12-07T11:04:03.315Z,9.66
2018-12-07T11:05:03.302Z,9.67
2018-12-07T11:06:03.292Z,9.72
2018-12-07T11:07:03.282Z,9.72
2018-12-07T11:08:03.273Z,9.77
2018-12-07T11:09:03.006Z,9.8
2018-12-07T11:10:03.249Z,9.75
2018-12-07T11:11:02.985Z,9.78
2018-12-07T11:12:03.225Z,9.74
2018-12-07T11:13:03.215Z,9.78
2018-12-07T11:14:02.955Z,9.78
2018-12-07T11:15:03.192Z,9.81
2018-12-07T11:16:03.180Z,9.84
2018-12-07T11:17:03.176Z,9.9
2018-12-07T11:18:03.163Z,9.84
2018-12-07T11:19:03.150Z,9.81
2018-12-07T11:20:03.143Z,9.81
2018-12-07T11:21:03.126Z,9.82
2018-12-07T11:22:03.129Z,9.88
2018-12-07T11:23:03.114Z,9.89
2018-12-07T11:24:03.091Z,9.89
2018-12-07T11:25:03.083Z,9.85
2018-12-07T11:26:02.820Z,9.8
2018-12-07T11:27:03.061Z,9.78
2018-12-07T11:28:03.106Z,9.77
2018-12-07T11:29:03.036Z,9.67
2018-12-07T11:30:03.031Z,9.71
2018-12-07T11:31:02.763Z,9.75
2018-12-07T11:32:03.005Z,9.67
2018-12-07T11:33:02.998Z,9.72
2018-12-07T11:34:02.979Z,9.66
2018-12-07T11:35:02.975Z,9.6
2018-12-07T11:36:10.434Z,9.66
2018-12-07T11:37:02.950Z,9.59
2018-12-07T11:38:02.937Z,9.57
2018-12-07T11:39:02.997Z,9.59
2018-12-07T11:40:02.920Z,9.6
2018-12-07T11:41:02.902Z,9.53
2018-12-07T11:42:02.893Z,9.63
2018-12-07T11:43:02.880Z,9.63
2018-12-07T11:44:02.873Z,9.63
2018-12-07T11:45:02.859Z,9.57
2018-12-07T11:46:02.928Z,9.56
2018-12-07T11:47:02.831Z,9.45
2018-12-07T11:48:02.905Z,9.5
2018-12-07T11:49:02.811Z,9.56
2018-12-07T11:50:02.796Z,9.5
2018-12-07T11:51:02.793Z,9.53
2018-12-07T11:52:02.781Z,9.5
2018-12-07T11:53:02.519Z,9.48
2018-12-07T11:54:02.756Z,9.44
2018-12-07T11:55:02.742Z,9.47
2018-12-07T11:56:02.742Z,9.44
2018-12-07T11:57:02.475Z,9.48
2018-12-07T11:58:02.789Z,9.53
2018-12-07T11:59:02.695Z,9.5
2018-12-07T12:00:02.441Z,9.41
2018-12-07T12:01:02.429Z,9.44
2018-12-07T12:02:02.663Z,9.34
2018-12-07T12:03:02.708Z,9.38
2018-12-07T12:04:02.642Z,9.39
2018-12-07T12:05:02.636Z,9.27
2018-12-07T12:06:02.625Z,9.38
2018-12-07T12:07:02.609Z,9.3
2018-12-07T12:08:02.127Z,9.35
2018-12-07T12:09:02.584Z,9.32
2018-12-07T12:10:02.323Z,9.38
2018-12-07T12:11:02.562Z,9.35
2018-12-07T12:12:02.552Z,9.35
2018-12-07T12:13:02.543Z,9.39
2018-12-07T12:14:02.528Z,9.32
2018-12-07T12:15:02.516Z,9.42
2018-12-07T12:16:02.507Z,9.44
2018-12-07T12:17:02.494Z,9.32
2018-12-07T12:18:02.493Z,9.34
2018-12-07T12:19:02.470Z,9.34
2018-12-07T12:20:02.459Z,9.37
2018-12-07T12:21:02.446Z,9.29
2018-12-07T12:22:02.439Z,9.37
2018-12-07T12:23:02.538Z,9.39
2018-12-07T12:24:02.422Z,9.34
2018-12-07T12:25:02.410Z,9.37
2018-12-07T12:26:02.170Z,9.3
2018-12-07T12:27:02.378Z,9.34
2018-12-07T12:28:02.449Z,9.29
2018-12-07T12:29:02.388Z,9.2
2018-12-07T12:30:02.345Z,9.26
2018-12-07T12:31:02.335Z,9.21
2018-12-07T12:32:02.329Z,9.17
2018-12-07T12:33:02.062Z,9.21
2018-12-07T12:34:02.300Z,9.16
2018-12-07T12:35:02.285Z,9.27
2018-12-07T12:36:02.026Z,9.2
2018-12-07T12:37:02.271Z,9.27
2018-12-07T12:38:02.259Z,9.29
2018-12-07T12:39:02.247Z,9.17
2018-12-07T12:40:02.332Z,9.32
2018-12-07T12:41:02.224Z,9.21
2018-12-07T12:42:02.208Z,9.32
2018-12-07T12:43:02.208Z,9.21
2018-12-07T12:44:02.182Z,9.29
2018-12-07T12:45:01.925Z,9.3
2018-12-07T12:46:02.160Z,9.34
2018-12-07T12:47:02.165Z,9.34
2018-12-07T12:48:02.696Z,9.3
2018-12-07T12:49:02.130Z,9.35
2018-12-07T12:50:02.119Z,9.29
2018-12-07T12:51:02.095Z,9.37
2018-12-07T12:52:01.840Z,9.34
2018-12-07T12:53:01.833Z,9.3
2018-12-07T12:54:02.067Z,9.34
2018-12-07T12:55:02.065Z,9.3
2018-12-07T12:56:02.050Z,9.38
2018-12-07T12:57:01.796Z,9.3
2018-12-07T12:58:02.032Z,9.29
2018-12-07T12:59:01.767Z,9.34
2018-12-07T13:00:03.755Z,9.37
2018-12-07T13:01:01.992Z,9.44
2018-12-07T13:02:01.978Z,9.38
2018-12-07T13:03:02.029Z,9.45
2018-12-07T13:04:01.950Z,9.5
2018-12-07T13:05:01.939Z,9.47
2018-12-07T13:06:01.929Z,9.48
2018-12-07T13:07:01.675Z,9.47
2018-12-07T13:08:01.905Z,9.53
2018-12-07T13:09:01.913Z,9.47
2018-12-07T13:10:01.889Z,9.48
2018-12-07T13:11:01.869Z,9.44
2018-12-07T13:12:01.876Z,9.44
2018-12-07T13:13:01.854Z,9.42
2018-12-07T13:14:01.589Z,9.41
2018-12-07T13:15:01.856Z,9.45
2018-12-07T13:16:01.816Z,9.5
2018-12-07T13:17:01.827Z,9.39
2018-12-07T13:18:01.793Z,9.48
2018-12-07T13:19:01.786Z,9.45
2018-12-07T13:20:01.771Z,9.48
2018-12-07T13:21:01.762Z,9.47
2018-12-07T13:22:01.511Z,9.5
2018-12-07T13:23:01.485Z,9.44